Howland, Ohio
Current Conditions -  °F | °C
As of 10:53 AM on Friday 28 Nov 2014 (Local Time) from KYNG Reporting Station
Light Snow Light Snow  
Wind Chill: 12°   Ceiling: 2800
Heat Index: 23°   Visibility: 10mi
Dew Point: 15°   Wind: 12mph
Humidity: 72%   Direction: 280°W
Pressure: 30.32"   Gusts: NA
Location:  41.234°N, 80.7496°W
Report Text: KYNG 281553Z 28010KT 10SM -SN BKN028 OVC150 M05/M09 A3032 RMK AO2 P0000 T10501094
Loading
Personal Weather Stations






























Interactive Weather Map New forecast layout! Learn more

10-Day Weather Forecast

Advertisements
Track Severe Weather on mobile